sensor_id;sensor_type;location;lat;lon;timestamp;P1;durP1;ratioP1;P2;durP2;ratioP2
60352;SDS011;46196;52.970;6.954;2022-09-21T00:00:38;2.90;;;2.03;;
60352;SDS011;46196;52.970;6.954;2022-09-21T00:03:04;3.60;;;2.30;;
60352;SDS011;46196;52.970;6.954;2022-09-21T00:05:31;3.53;;;2.35;;
60352;SDS011;46196;52.970;6.954;2022-09-21T00:08:01;3.00;;;1.90;;
60352;SDS011;46196;52.970;6.954;2022-09-21T00:10:29;4.45;;;2.00;;
60352;SDS011;46196;52.970;6.954;2022-09-21T00:12:55;4.05;;;2.20;;
60352;SDS011;46196;52.970;6.954;2022-09-21T00:15:23;2.97;;;2.17;;
60352;SDS011;46196;52.970;6.954;2022-09-21T00:17:52;3.72;;;2.13;;
60352;SDS011;46196;52.970;6.954;2022-09-21T00:20:19;5.20;;;2.30;;
60352;SDS011;46196;52.970;6.954;2022-09-21T00:22:46;5.57;;;2.35;;
60352;SDS011;46196;52.970;6.954;2022-09-21T00:25:12;5.15;;;2.47;;
60352;SDS011;46196;52.970;6.954;2022-09-21T00:27:39;3.95;;;2.15;;
60352;SDS011;46196;52.970;6.954;2022-09-21T00:30:06;6.90;;;2.42;;
60352;SDS011;46196;52.970;6.954;2022-09-21T00:32:33;3.63;;;2.63;;
60352;SDS011;46196;52.970;6.954;2022-09-21T00:35:01;5.25;;;2.95;;
60352;SDS011;46196;52.970;6.954;2022-09-21T00:37:28;4.15;;;2.50;;
60352;SDS011;46196;52.970;6.954;2022-09-21T00:39:54;3.60;;;2.40;;
60352;SDS011;46196;52.970;6.954;2022-09-21T00:44:48;3.65;;;2.40;;
60352;SDS011;46196;52.970;6.954;2022-09-21T00:47:36;4.93;;;2.55;;
60352;SDS011;46196;52.970;6.954;2022-09-21T00:50:10;4.03;;;2.30;;
60352;SDS011;46196;52.970;6.954;2022-09-21T00:52:40;5.50;;;2.60;;
60352;SDS011;46196;52.970;6.954;2022-09-21T00:55:27;4.78;;;2.40;;
60352;SDS011;46196;52.970;6.954;2022-09-21T00:57:59;4.10;;;2.30;;
60352;SDS011;46196;52.970;6.954;2022-09-21T01:00:32;4.45;;;2.40;;
60352;SDS011;46196;52.970;6.954;2022-09-21T01:02:58;3.45;;;2.30;;
60352;SDS011;46196;52.970;6.954;2022-09-21T01:05:28;4.25;;;2.53;;
60352;SDS011;46196;52.970;6.954;2022-09-21T01:07:55;5.35;;;2.40;;
60352;SDS011;46196;52.970;6.954;2022-09-21T01:10:26;4.82;;;2.33;;
60352;SDS011;46196;52.970;6.954;2022-09-21T01:18:11;2.92;;;2.13;;
60352;SDS011;46196;52.970;6.954;2022-09-21T01:23:47;4.15;;;2.40;;
60352;SDS011;46196;52.970;6.954;2022-09-21T01:32:17;3.47;;;2.17;;
60352;SDS011;46196;52.970;6.954;2022-09-21T01:34:51;4.38;;;2.30;;
60352;SDS011;46196;52.970;6.954;2022-09-21T01:37:46;4.18;;;2.35;;
60352;SDS011;46196;52.970;6.954;2022-09-21T01:40:18;5.55;;;2.20;;
60352;SDS011;46196;52.970;6.954;2022-09-21T01:42:51;4.32;;;2.45;;
60352;SDS011;46196;52.970;6.954;2022-09-21T01:45:22;3.10;;;2.20;;
60352;SDS011;46196;52.970;6.954;2022-09-21T01:47:56;3.88;;;2.35;;
60352;SDS011;46196;52.970;6.954;2022-09-21T01:50:24;4.15;;;2.22;;
60352;SDS011;46196;52.970;6.954;2022-09-21T01:52:59;3.05;;;2.22;;
60352;SDS011;46196;52.970;6.954;2022-09-21T01:55:48;4.25;;;2.17;;
60352;SDS011;46196;52.970;6.954;2022-09-21T02:01:05;3.10;;;2.15;;
60352;SDS011;46196;52.970;6.954;2022-09-21T02:03:38;4.00;;;2.50;;
60352;SDS011;46196;52.970;6.954;2022-09-21T02:06:09;3.20;;;2.20;;
60352;SDS011;46196;52.970;6.954;2022-09-21T02:08:36;6.50;;;2.40;;
60352;SDS011;46196;52.970;6.954;2022-09-21T02:11:03;4.55;;;2.50;;
60352;SDS011;46196;52.970;6.954;2022-09-21T02:13:34;3.70;;;2.40;;
60352;SDS011;46196;52.970;6.954;2022-09-21T02:21:24;2.90;;;2.30;;
60352;SDS011;46196;52.970;6.954;2022-09-21T02:23:55;3.83;;;2.03;;
60352;SDS011;46196;52.970;6.954;2022-09-21T02:26:33;3.28;;;2.00;;
60352;SDS011;46196;52.970;6.954;2022-09-21T02:29:19;3.50;;;2.22;;
60352;SDS011;46196;52.970;6.954;2022-09-21T02:32:11;3.38;;;2.58;;
60352;SDS011;46196;52.970;6.954;2022-09-21T02:35:07;3.25;;;2.10;;
60352;SDS011;46196;52.970;6.954;2022-09-21T02:40:40;3.55;;;2.40;;
60352;SDS011;46196;52.970;6.954;2022-09-21T02:43:15;3.40;;;2.03;;
60352;SDS011;46196;52.970;6.954;2022-09-21T02:45:50;3.33;;;2.30;;
60352;SDS011;46196;52.970;6.954;2022-09-21T02:48:23;3.47;;;2.42;;
60352;SDS011;46196;52.970;6.954;2022-09-21T02:50:57;2.97;;;2.10;;
60352;SDS011;46196;52.970;6.954;2022-09-21T02:53:29;3.22;;;2.10;;
60352;SDS011;46196;52.970;6.954;2022-09-21T02:55:59;3.38;;;2.30;;
60352;SDS011;46196;52.970;6.954;2022-09-21T02:58:29;6.93;;;2.40;;
60352;SDS011;46196;52.970;6.954;2022-09-21T03:00:57;5.93;;;2.70;;
60352;SDS011;46196;52.970;6.954;2022-09-21T03:03:24;4.80;;;2.65;;
60352;SDS011;46196;52.970;6.954;2022-09-21T03:05:51;3.67;;;2.22;;
60352;SDS011;46196;52.970;6.954;2022-09-21T03:08:18;3.35;;;2.35;;
60352;SDS011;46196;52.970;6.954;2022-09-21T03:10:44;3.63;;;2.40;;
60352;SDS011;46196;52.970;6.954;2022-09-21T03:13:13;2.97;;;2.10;;
60352;SDS011;46196;52.970;6.954;2022-09-21T03:15:39;5.60;;;2.53;;
60352;SDS011;46196;52.970;6.954;2022-09-21T03:18:05;3.35;;;2.45;;
60352;SDS011;46196;52.970;6.954;2022-09-21T03:20:36;3.15;;;2.40;;
60352;SDS011;46196;52.970;6.954;2022-09-21T03:23:10;3.17;;;2.25;;
60352;SDS011;46196;52.970;6.954;2022-09-21T03:25:36;3.15;;;2.15;;
60352;SDS011;46196;52.970;6.954;2022-09-21T03:28:03;3.03;;;2.15;;
60352;SDS011;46196;52.970;6.954;2022-09-21T03:30:29;3.28;;;2.10;;
60352;SDS011;46196;52.970;6.954;2022-09-21T03:32:56;3.22;;;2.20;;
60352;SDS011;46196;52.970;6.954;2022-09-21T03:35:23;2.80;;;2.10;;
60352;SDS011;46196;52.970;6.954;2022-09-21T03:37:51;3.20;;;2.10;;
60352;SDS011;46196;52.970;6.954;2022-09-21T03:40:19;3.42;;;2.40;;
60352;SDS011;46196;52.970;6.954;2022-09-21T03:42:45;3.40;;;2.28;;
60352;SDS011;46196;52.970;6.954;2022-09-21T03:45:11;3.47;;;2.40;;
60352;SDS011;46196;52.970;6.954;2022-09-21T03:47:37;3.15;;;2.08;;
60352;SDS011;46196;52.970;6.954;2022-09-21T03:50:04;2.85;;;2.03;;
60352;SDS011;46196;52.970;6.954;2022-09-21T03:52:31;3.30;;;2.20;;
60352;SDS011;46196;52.970;6.954;2022-09-21T03:54:57;2.90;;;2.20;;
60352;SDS011;46196;52.970;6.954;2022-09-21T03:57:23;3.10;;;2.20;;
60352;SDS011;46196;52.970;6.954;2022-09-21T03:59:49;3.60;;;2.33;;
60352;SDS011;46196;52.970;6.954;2022-09-21T04:02:15;3.67;;;2.00;;
60352;SDS011;46196;52.970;6.954;2022-09-21T04:04:41;3.47;;;2.40;;
60352;SDS011;46196;52.970;6.954;2022-09-21T04:07:06;3.50;;;2.20;;
60352;SDS011;46196;52.970;6.954;2022-09-21T04:09:32;3.22;;;2.30;;
60352;SDS011;46196;52.970;6.954;2022-09-21T04:11:58;4.13;;;2.17;;
60352;SDS011;46196;52.970;6.954;2022-09-21T04:14:27;3.17;;;2.13;;
60352;SDS011;46196;52.970;6.954;2022-09-21T04:16:53;3.87;;;2.50;;
60352;SDS011;46196;52.970;6.954;2022-09-21T04:19:18;3.40;;;2.10;;
60352;SDS011;46196;52.970;6.954;2022-09-21T04:21:46;3.65;;;2.08;;
60352;SDS011;46196;52.970;6.954;2022-09-21T04:24:12;4.15;;;2.25;;
60352;SDS011;46196;52.970;6.954;2022-09-21T04:26:37;2.65;;;2.00;;
60352;SDS011;46196;52.970;6.954;2022-09-21T04:29:05;3.47;;;2.15;;
60352;SDS011;46196;52.970;6.954;2022-09-21T04:31:31;5.55;;;2.40;;
60352;SDS011;46196;52.970;6.954;2022-09-21T04:33:57;3.67;;;2.35;;
60352;SDS011;46196;52.970;6.954;2022-09-21T04:36:24;3.47;;;2.30;;
60352;SDS011;46196;52.970;6.954;2022-09-21T04:38:52;3.60;;;2.35;;
60352;SDS011;46196;52.970;6.954;2022-09-21T04:41:21;6.60;;;2.40;;
60352;SDS011;46196;52.970;6.954;2022-09-21T04:44:02;3.67;;;2.53;;
60352;SDS011;46196;52.970;6.954;2022-09-21T04:46:28;3.60;;;2.58;;
60352;SDS011;46196;52.970;6.954;2022-09-21T04:48:54;3.55;;;2.20;;
60352;SDS011;46196;52.970;6.954;2022-09-21T04:51:20;3.83;;;2.20;;
60352;SDS011;46196;52.970;6.954;2022-09-21T04:53:46;5.93;;;2.20;;
60352;SDS011;46196;52.970;6.954;2022-09-21T04:56:12;2.80;;;1.90;;
60352;SDS011;46196;52.970;6.954;2022-09-21T04:58:39;2.50;;;1.60;;
60352;SDS011;46196;52.970;6.954;2022-09-21T05:01:05;1.58;;;1.45;;
60352;SDS011;46196;52.970;6.954;2022-09-21T05:03:31;1.88;;;1.60;;
60352;SDS011;46196;52.970;6.954;2022-09-21T05:05:58;2.42;;;1.50;;
60352;SDS011;46196;52.970;6.954;2022-09-21T05:08:24;1.58;;;1.48;;
60352;SDS011;46196;52.970;6.954;2022-09-21T05:11:11;7.78;;;5.95;;
60352;SDS011;46196;52.970;6.954;2022-09-21T05:13:39;18.10;;;11.80;;
60352;SDS011;46196;52.970;6.954;2022-09-21T05:16:06;12.07;;;8.02;;
60352;SDS011;46196;52.970;6.954;2022-09-21T05:18:32;6.00;;;3.35;;
60352;SDS011;46196;52.970;6.954;2022-09-21T05:20:59;2.50;;;1.85;;
60352;SDS011;46196;52.970;6.954;2022-09-21T05:23:26;5.55;;;3.67;;
60352;SDS011;46196;52.970;6.954;2022-09-21T05:25:55;8.85;;;5.15;;
60352;SDS011;46196;52.970;6.954;2022-09-21T05:28:22;8.57;;;4.97;;
60352;SDS011;46196;52.970;6.954;2022-09-21T05:30:56;5.93;;;2.70;;
60352;SDS011;46196;52.970;6.954;2022-09-21T05:33:27;2.58;;;1.90;;
60352;SDS011;46196;52.970;6.954;2022-09-21T05:38:48;2.00;;;1.55;;
60352;SDS011;46196;52.970;6.954;2022-09-21T05:41:14;2.10;;;1.60;;
60352;SDS011;46196;52.970;6.954;2022-09-21T05:43:40;2.38;;;1.85;;
60352;SDS011;46196;52.970;6.954;2022-09-21T05:48:37;2.53;;;1.80;;
60352;SDS011;46196;52.970;6.954;2022-09-21T05:51:11;2.10;;;1.60;;
60352;SDS011;46196;52.970;6.954;2022-09-21T06:04:36;2.97;;;2.00;;
60352;SDS011;46196;52.970;6.954;2022-09-21T06:07:02;3.17;;;1.80;;
60352;SDS011;46196;52.970;6.954;2022-09-21T06:09:28;2.33;;;1.60;;
60352;SDS011;46196;52.970;6.954;2022-09-21T06:11:54;3.60;;;2.20;;
60352;SDS011;46196;52.970;6.954;2022-09-21T06:14:19;3.03;;;2.00;;
60352;SDS011;46196;52.970;6.954;2022-09-21T06:16:49;3.38;;;2.20;;
60352;SDS011;46196;52.970;6.954;2022-09-21T06:19:16;2.45;;;1.90;;
60352;SDS011;46196;52.970;6.954;2022-09-21T06:21:42;2.15;;;1.70;;
60352;SDS011;46196;52.970;6.954;2022-09-21T06:24:08;2.47;;;1.75;;
60352;SDS011;46196;52.970;6.954;2022-09-21T06:26:34;2.95;;;1.90;;
60352;SDS011;46196;52.970;6.954;2022-09-21T06:29:00;3.40;;;1.90;;
60352;SDS011;46196;52.970;6.954;2022-09-21T06:31:26;2.92;;;2.00;;
60352;SDS011;46196;52.970;6.954;2022-09-21T06:33:52;2.60;;;1.90;;
60352;SDS011;46196;52.970;6.954;2022-09-21T06:36:18;3.75;;;2.00;;
60352;SDS011;46196;52.970;6.954;2022-09-21T06:38:44;3.50;;;2.10;;
60352;SDS011;46196;52.970;6.954;2022-09-21T06:41:09;3.40;;;1.90;;
60352;SDS011;46196;52.970;6.954;2022-09-21T06:43:35;3.35;;;2.00;;
60352;SDS011;46196;52.970;6.954;2022-09-21T06:46:01;2.85;;;2.00;;
60352;SDS011;46196;52.970;6.954;2022-09-21T06:48:27;4.03;;;2.75;;
60352;SDS011;46196;52.970;6.954;2022-09-21T06:51:01;3.00;;;2.20;;
60352;SDS011;46196;52.970;6.954;2022-09-21T06:53:29;3.60;;;2.28;;
60352;SDS011;46196;52.970;6.954;2022-09-21T06:56:05;3.30;;;2.20;;
60352;SDS011;46196;52.970;6.954;2022-09-21T06:58:32;4.57;;;2.08;;
60352;SDS011;46196;52.970;6.954;2022-09-21T07:01:09;3.17;;;2.30;;
60352;SDS011;46196;52.970;6.954;2022-09-21T07:03:36;5.38;;;2.20;;
60352;SDS011;46196;52.970;6.954;2022-09-21T07:06:03;2.90;;;2.13;;
60352;SDS011;46196;52.970;6.954;2022-09-21T07:08:29;3.30;;;2.28;;
60352;SDS011;46196;52.970;6.954;2022-09-21T07:10:56;4.18;;;2.53;;
60352;SDS011;46196;52.970;6.954;2022-09-21T07:13:23;5.22;;;2.63;;
60352;SDS011;46196;52.970;6.954;2022-09-21T07:15:50;4.32;;;2.67;;
60352;SDS011;46196;52.970;6.954;2022-09-21T07:18:16;4.80;;;2.60;;
60352;SDS011;46196;52.970;6.954;2022-09-21T07:20:41;3.83;;;2.67;;
60352;SDS011;46196;52.970;6.954;2022-09-21T07:23:25;5.82;;;2.85;;
60352;SDS011;46196;52.970;6.954;2022-09-21T07:25:51;6.68;;;3.28;;
60352;SDS011;46196;52.970;6.954;2022-09-21T07:28:17;6.05;;;2.95;;
60352;SDS011;46196;52.970;6.954;2022-09-21T07:30:43;6.47;;;2.80;;
60352;SDS011;46196;52.970;6.954;2022-09-21T07:33:09;7.15;;;3.10;;
60352;SDS011;46196;52.970;6.954;2022-09-21T07:35:35;7.32;;;3.30;;
60352;SDS011;46196;52.970;6.954;2022-09-21T07:38:03;6.20;;;3.00;;
60352;SDS011;46196;52.970;6.954;2022-09-21T07:40:30;5.80;;;2.88;;
60352;SDS011;46196;52.970;6.954;2022-09-21T07:42:57;6.57;;;3.10;;
60352;SDS011;46196;52.970;6.954;2022-09-21T07:45:23;7.65;;;3.72;;
60352;SDS011;46196;52.970;6.954;2022-09-21T07:47:50;5.90;;;3.28;;
60352;SDS011;46196;52.970;6.954;2022-09-21T07:50:19;6.53;;;3.40;;
60352;SDS011;46196;52.970;6.954;2022-09-21T07:52:45;6.85;;;3.50;;
60352;SDS011;46196;52.970;6.954;2022-09-21T07:55:12;5.88;;;3.35;;
60352;SDS011;46196;52.970;6.954;2022-09-21T07:57:38;10.65;;;3.70;;
60352;SDS011;46196;52.970;6.954;2022-09-21T08:00:22;9.35;;;3.22;;
60352;SDS011;46196;52.970;6.954;2022-09-21T08:02:48;7.85;;;2.90;;
60352;SDS011;46196;52.970;6.954;2022-09-21T08:05:14;7.68;;;2.90;;
60352;SDS011;46196;52.970;6.954;2022-09-21T08:07:40;7.13;;;3.05;;
60352;SDS011;46196;52.970;6.954;2022-09-21T08:10:06;5.20;;;2.55;;
60352;SDS011;46196;52.970;6.954;2022-09-21T08:12:32;6.60;;;2.28;;
60352;SDS011;46196;52.970;6.954;2022-09-21T08:14:58;6.88;;;2.30;;
60352;SDS011;46196;52.970;6.954;2022-09-21T08:17:31;4.97;;;2.40;;
60352;SDS011;46196;52.970;6.954;2022-09-21T08:20:03;5.07;;;2.40;;
60352;SDS011;46196;52.970;6.954;2022-09-21T08:22:29;6.03;;;2.42;;
60352;SDS011;46196;52.970;6.954;2022-09-21T08:24:54;5.57;;;2.33;;
60352;SDS011;46196;52.970;6.954;2022-09-21T08:27:21;5.35;;;2.10;;
60352;SDS011;46196;52.970;6.954;2022-09-21T08:29:49;5.40;;;2.03;;
60352;SDS011;46196;52.970;6.954;2022-09-21T08:32:15;5.40;;;2.17;;
60352;SDS011;46196;52.970;6.954;2022-09-21T08:34:41;4.25;;;1.95;;
60352;SDS011;46196;52.970;6.954;2022-09-21T08:37:07;5.35;;;2.00;;
60352;SDS011;46196;52.970;6.954;2022-09-21T08:39:34;3.45;;;1.90;;
60352;SDS011;46196;52.970;6.954;2022-09-21T08:44:39;4.72;;;1.77;;
60352;SDS011;46196;52.970;6.954;2022-09-21T08:47:14;4.88;;;1.98;;
60352;SDS011;46196;52.970;6.954;2022-09-21T08:49:48;5.22;;;2.05;;
60352;SDS011;46196;52.970;6.954;2022-09-21T08:52:17;4.95;;;1.80;;
60352;SDS011;46196;52.970;6.954;2022-09-21T08:57:19;5.40;;;1.90;;
60352;SDS011;46196;52.970;6.954;2022-09-21T08:59:47;4.75;;;1.90;;
60352;SDS011;46196;52.970;6.954;2022-09-21T09:15:46;6.50;;;2.10;;
60352;SDS011;46196;52.970;6.954;2022-09-21T09:18:15;5.32;;;1.80;;
60352;SDS011;46196;52.970;6.954;2022-09-21T09:20:46;4.53;;;2.00;;
60352;SDS011;46196;52.970;6.954;2022-09-21T09:23:26;5.70;;;2.17;;
60352;SDS011;46196;52.970;6.954;2022-09-21T09:25:58;6.10;;;2.10;;
60352;SDS011;46196;52.970;6.954;2022-09-21T09:28:57;5.95;;;1.77;;
60352;SDS011;46196;52.970;6.954;2022-09-21T09:31:31;3.72;;;1.60;;
60352;SDS011;46196;52.970;6.954;2022-09-21T09:34:00;5.30;;;2.00;;
60352;SDS011;46196;52.970;6.954;2022-09-21T09:36:47;5.75;;;2.00;;
60352;SDS011;46196;52.970;6.954;2022-09-21T09:39:18;3.45;;;1.63;;
60352;SDS011;46196;52.970;6.954;2022-09-21T09:47:06;6.82;;;2.40;;
60352;SDS011;46196;52.970;6.954;2022-09-21T09:52:27;5.57;;;2.20;;
60352;SDS011;46196;52.970;6.954;2022-09-21T09:54:54;3.47;;;2.00;;
60352;SDS011;46196;52.970;6.954;2022-09-21T09:57:23;4.80;;;2.15;;
60352;SDS011;46196;52.970;6.954;2022-09-21T10:00:02;5.13;;;2.42;;
60352;SDS011;46196;52.970;6.954;2022-09-21T10:02:44;4.22;;;2.38;;
60352;SDS011;46196;52.970;6.954;2022-09-21T10:05:17;6.13;;;2.40;;
60352;SDS011;46196;52.970;6.954;2022-09-21T10:07:44;3.17;;;1.95;;
60352;SDS011;46196;52.970;6.954;2022-09-21T10:13:08;5.65;;;2.25;;
60352;SDS011;46196;52.970;6.954;2022-09-21T10:15:41;6.13;;;1.90;;
60352;SDS011;46196;52.970;6.954;2022-09-21T10:18:25;3.15;;;1.65;;
60352;SDS011;46196;52.970;6.954;2022-09-21T10:23:30;4.70;;;1.60;;
60352;SDS011;46196;52.970;6.954;2022-09-21T10:26:17;4.00;;;1.70;;
60352;SDS011;46196;52.970;6.954;2022-09-21T10:31:25;5.28;;;1.80;;
60352;SDS011;46196;52.970;6.954;2022-09-21T10:36:30;3.53;;;1.70;;
60352;SDS011;46196;52.970;6.954;2022-09-21T10:39:10;3.90;;;1.80;;
60352;SDS011;46196;52.970;6.954;2022-09-21T10:41:51;2.70;;;1.48;;
60352;SDS011;46196;52.970;6.954;2022-09-21T10:44:20;4.43;;;1.80;;
60352;SDS011;46196;52.970;6.954;2022-09-21T10:49:18;5.70;;;1.98;;
60352;SDS011;46196;52.970;6.954;2022-09-21T10:51:52;4.43;;;1.77;;
60352;SDS011;46196;52.970;6.954;2022-09-21T10:54:25;4.35;;;1.70;;
60352;SDS011;46196;52.970;6.954;2022-09-21T10:57:00;3.90;;;1.52;;
60352;SDS011;46196;52.970;6.954;2022-09-21T10:59:35;3.85;;;1.65;;
60352;SDS011;46196;52.970;6.954;2022-09-21T11:02:07;1.77;;;1.30;;
60352;SDS011;46196;52.970;6.954;2022-09-21T11:04:56;3.65;;;1.48;;
60352;SDS011;46196;52.970;6.954;2022-09-21T11:12:51;4.70;;;2.85;;
60352;SDS011;46196;52.970;6.954;2022-09-21T11:20:54;3.40;;;1.50;;
60352;SDS011;46196;52.970;6.954;2022-09-21T11:23:27;4.68;;;1.98;;
60352;SDS011;46196;52.970;6.954;2022-09-21T11:26:13;3.88;;;1.60;;
60352;SDS011;46196;52.970;6.954;2022-09-21T11:28:57;3.65;;;2.13;;
60352;SDS011;46196;52.970;6.954;2022-09-21T11:34:22;3.03;;;1.65;;
60352;SDS011;46196;52.970;6.954;2022-09-21T11:50:56;5.28;;;1.73;;
60352;SDS011;46196;52.970;6.954;2022-09-21T12:10:42;2.55;;;1.48;;
60352;SDS011;46196;52.970;6.954;2022-09-21T12:13:33;3.75;;;2.00;;
60352;SDS011;46196;52.970;6.954;2022-09-21T12:22:02;3.83;;;1.83;;
60352;SDS011;46196;52.970;6.954;2022-09-21T12:24:46;4.15;;;1.75;;
60352;SDS011;46196;52.970;6.954;2022-09-21T12:28:00;2.53;;;1.58;;
60352;SDS011;46196;52.970;6.954;2022-09-21T12:30:20;3.35;;;1.60;;
60352;SDS011;46196;52.970;6.954;2022-09-21T12:35:39;2.88;;;1.63;;
60352;SDS011;46196;52.970;6.954;2022-09-21T12:46:52;1.98;;;1.23;;
60352;SDS011;46196;52.970;6.954;2022-09-21T12:49:40;3.22;;;1.48;;
60352;SDS011;46196;52.970;6.954;2022-09-21T12:52:09;4.03;;;1.70;;
60352;SDS011;46196;52.970;6.954;2022-09-21T12:57:55;3.40;;;1.52;;
60352;SDS011;46196;52.970;6.954;2022-09-21T13:00:22;2.70;;;1.50;;
60352;SDS011;46196;52.970;6.954;2022-09-21T13:02:56;3.28;;;1.40;;
60352;SDS011;46196;52.970;6.954;2022-09-21T13:12:57;3.03;;;1.70;;
60352;SDS011;46196;52.970;6.954;2022-09-21T13:15:27;3.95;;;1.60;;
60352;SDS011;46196;52.970;6.954;2022-09-21T13:17:56;4.38;;;1.70;;
60352;SDS011;46196;52.970;6.954;2022-09-21T13:20:36;2.85;;;1.50;;
60352;SDS011;46196;52.970;6.954;2022-09-21T13:23:04;4.10;;;1.65;;
60352;SDS011;46196;52.970;6.954;2022-09-21T13:25:31;5.70;;;1.73;;
60352;SDS011;46196;52.970;6.954;2022-09-21T13:30:41;4.43;;;1.63;;
60352;SDS011;46196;52.970;6.954;2022-09-21T13:54:26;2.03;;;1.40;;
60352;SDS011;46196;52.970;6.954;2022-09-21T13:57:01;3.15;;;1.52;;
60352;SDS011;46196;52.970;6.954;2022-09-21T13:59:44;4.88;;;1.65;;
60352;SDS011;46196;52.970;6.954;2022-09-21T14:02:22;2.95;;;1.27;;
60352;SDS011;46196;52.970;6.954;2022-09-21T14:04:55;10.05;;;8.15;;
60352;SDS011;46196;52.970;6.954;2022-09-21T14:07:29;4.53;;;1.70;;
60352;SDS011;46196;52.970;6.954;2022-09-21T14:10:03;3.25;;;1.55;;
60352;SDS011;46196;52.970;6.954;2022-09-21T14:12:40;4.15;;;2.03;;
60352;SDS011;46196;52.970;6.954;2022-09-21T14:17:41;3.13;;;1.85;;
60352;SDS011;46196;52.970;6.954;2022-09-21T14:20:27;4.63;;;1.80;;
60352;SDS011;46196;52.970;6.954;2022-09-21T14:25:51;5.00;;;2.65;;
60352;SDS011;46196;52.970;6.954;2022-09-21T14:31:23;2.58;;;1.38;;
60352;SDS011;46196;52.970;6.954;2022-09-21T14:33:58;6.03;;;1.80;;
60352;SDS011;46196;52.970;6.954;2022-09-21T14:36:40;4.85;;;1.52;;
60352;SDS011;46196;52.970;6.954;2022-09-21T14:39:20;5.00;;;1.80;;
60352;SDS011;46196;52.970;6.954;2022-09-21T14:41:51;3.50;;;1.80;;
60352;SDS011;46196;52.970;6.954;2022-09-21T14:44:20;2.75;;;1.20;;
60352;SDS011;46196;52.970;6.954;2022-09-21T14:49:53;2.20;;;1.33;;
60352;SDS011;46196;52.970;6.954;2022-09-21T14:52:34;4.15;;;1.50;;
60352;SDS011;46196;52.970;6.954;2022-09-21T14:58:11;2.67;;;1.48;;
60352;SDS011;46196;52.970;6.954;2022-09-21T15:00:43;4.13;;;1.42;;
60352;SDS011;46196;52.970;6.954;2022-09-21T15:17:51;5.75;;;1.83;;
60352;SDS011;46196;52.970;6.954;2022-09-21T15:20:20;3.22;;;1.77;;
60352;SDS011;46196;52.970;6.954;2022-09-21T15:22:47;2.53;;;1.38;;
60352;SDS011;46196;52.970;6.954;2022-09-21T15:25:13;2.28;;;1.33;;
60352;SDS011;46196;52.970;6.954;2022-09-21T15:27:42;2.28;;;1.23;;
60352;SDS011;46196;52.970;6.954;2022-09-21T15:30:20;2.20;;;1.30;;
60352;SDS011;46196;52.970;6.954;2022-09-21T15:32:58;3.55;;;1.58;;
60352;SDS011;46196;52.970;6.954;2022-09-21T15:35:29;4.32;;;1.85;;
60352;SDS011;46196;52.970;6.954;2022-09-21T15:37:57;3.90;;;1.50;;
60352;SDS011;46196;52.970;6.954;2022-09-21T15:40:32;2.22;;;1.20;;
60352;SDS011;46196;52.970;6.954;2022-09-21T15:48:23;3.08;;;1.48;;
60352;SDS011;46196;52.970;6.954;2022-09-21T15:50:53;3.58;;;1.48;;
60352;SDS011;46196;52.970;6.954;2022-09-21T15:53:33;3.42;;;1.45;;
60352;SDS011;46196;52.970;6.954;2022-09-21T15:56:05;3.40;;;1.33;;
60352;SDS011;46196;52.970;6.954;2022-09-21T15:58:36;2.30;;;1.35;;
60352;SDS011;46196;52.970;6.954;2022-09-21T16:01:09;2.80;;;1.73;;
60352;SDS011;46196;52.970;6.954;2022-09-21T16:03:40;3.35;;;1.80;;
60352;SDS011;46196;52.970;6.954;2022-09-21T16:06:17;3.08;;;1.50;;
60352;SDS011;46196;52.970;6.954;2022-09-21T16:08:52;3.65;;;1.92;;
60352;SDS011;46196;52.970;6.954;2022-09-21T16:14:13;2.90;;;1.45;;
60352;SDS011;46196;52.970;6.954;2022-09-21T16:20:12;3.17;;;1.35;;
60352;SDS011;46196;52.970;6.954;2022-09-21T16:25:27;4.10;;;1.77;;
60352;SDS011;46196;52.970;6.954;2022-09-21T16:27:58;5.30;;;1.90;;
60352;SDS011;46196;52.970;6.954;2022-09-21T16:30:50;4.07;;;1.88;;
60352;SDS011;46196;52.970;6.954;2022-09-21T16:38:49;3.90;;;1.98;;
60352;SDS011;46196;52.970;6.954;2022-09-21T16:41:17;4.22;;;1.75;;
60352;SDS011;46196;52.970;6.954;2022-09-21T16:43:45;3.10;;;1.63;;
60352;SDS011;46196;52.970;6.954;2022-09-21T16:46:11;3.50;;;1.40;;
60352;SDS011;46196;52.970;6.954;2022-09-21T16:48:38;2.60;;;1.50;;
60352;SDS011;46196;52.970;6.954;2022-09-21T16:51:11;3.08;;;1.65;;
60352;SDS011;46196;52.970;6.954;2022-09-21T16:53:38;3.58;;;1.70;;
60352;SDS011;46196;52.970;6.954;2022-09-21T16:56:04;3.97;;;1.60;;
60352;SDS011;46196;52.970;6.954;2022-09-21T16:58:35;3.17;;;1.95;;
60352;SDS011;46196;52.970;6.954;2022-09-21T17:01:01;3.45;;;1.58;;
60352;SDS011;46196;52.970;6.954;2022-09-21T17:03:27;2.78;;;1.42;;
60352;SDS011;46196;52.970;6.954;2022-09-21T17:05:55;2.60;;;1.17;;
60352;SDS011;46196;52.970;6.954;2022-09-21T17:08:21;2.42;;;1.40;;
60352;SDS011;46196;52.970;6.954;2022-09-21T17:10:48;3.50;;;1.80;;
60352;SDS011;46196;52.970;6.954;2022-09-21T17:13:13;3.50;;;1.80;;
60352;SDS011;46196;52.970;6.954;2022-09-21T17:15:42;2.97;;;1.60;;
60352;SDS011;46196;52.970;6.954;2022-09-21T17:18:11;3.45;;;1.63;;
60352;SDS011;46196;52.970;6.954;2022-09-21T17:20:42;4.05;;;1.70;;
60352;SDS011;46196;52.970;6.954;2022-09-21T17:23:09;3.55;;;1.85;;
60352;SDS011;46196;52.970;6.954;2022-09-21T17:25:35;3.80;;;1.67;;
60352;SDS011;46196;52.970;6.954;2022-09-21T17:28:02;3.08;;;2.00;;
60352;SDS011;46196;52.970;6.954;2022-09-21T17:30:34;3.15;;;1.65;;
60352;SDS011;46196;52.970;6.954;2022-09-21T17:33:02;3.75;;;1.90;;
60352;SDS011;46196;52.970;6.954;2022-09-21T17:35:32;4.93;;;1.80;;
60352;SDS011;46196;52.970;6.954;2022-09-21T17:38:00;4.10;;;1.88;;
60352;SDS011;46196;52.970;6.954;2022-09-21T17:40:27;3.50;;;1.67;;
60352;SDS011;46196;52.970;6.954;2022-09-21T17:43:41;2.97;;;1.75;;
60352;SDS011;46196;52.970;6.954;2022-09-21T17:46:03;4.50;;;1.85;;
60352;SDS011;46196;52.970;6.954;2022-09-21T17:48:32;3.95;;;2.08;;
60352;SDS011;46196;52.970;6.954;2022-09-21T17:50:57;5.15;;;2.40;;
60352;SDS011;46196;52.970;6.954;2022-09-21T17:53:23;4.63;;;2.70;;
60352;SDS011;46196;52.970;6.954;2022-09-21T17:59:04;5.90;;;3.00;;
60352;SDS011;46196;52.970;6.954;2022-09-21T18:01:35;5.28;;;3.10;;
60352;SDS011;46196;52.970;6.954;2022-09-21T18:04:04;4.07;;;2.90;;
60352;SDS011;46196;52.970;6.954;2022-09-21T18:06:31;4.63;;;2.47;;
60352;SDS011;46196;52.970;6.954;2022-09-21T18:08:58;3.10;;;2.13;;
60352;SDS011;46196;52.970;6.954;2022-09-21T18:11:36;3.38;;;2.30;;
60352;SDS011;46196;52.970;6.954;2022-09-21T18:24:57;3.45;;;2.13;;
60352;SDS011;46196;52.970;6.954;2022-09-21T18:27:24;3.97;;;2.05;;
60352;SDS011;46196;52.970;6.954;2022-09-21T18:29:50;4.22;;;2.30;;
60352;SDS011;46196;52.970;6.954;2022-09-21T18:46:38;3.63;;;2.20;;
60352;SDS011;46196;52.970;6.954;2022-09-21T18:49:39;3.20;;;2.15;;
60352;SDS011;46196;52.970;6.954;2022-09-21T18:52:16;5.15;;;2.35;;
60352;SDS011;46196;52.970;6.954;2022-09-21T18:54:54;4.50;;;2.40;;
60352;SDS011;46196;52.970;6.954;2022-09-21T18:57:20;7.45;;;2.50;;
60352;SDS011;46196;52.970;6.954;2022-09-21T18:59:47;4.07;;;2.40;;
60352;SDS011;46196;52.970;6.954;2022-09-21T19:02:16;2.55;;;2.03;;
60352;SDS011;46196;52.970;6.954;2022-09-21T19:04:44;6.47;;;3.00;;
60352;SDS011;46196;52.970;6.954;2022-09-21T19:10:16;3.50;;;2.60;;
60352;SDS011;46196;52.970;6.954;2022-09-21T19:15:41;3.25;;;2.50;;
60352;SDS011;46196;52.970;6.954;2022-09-21T19:18:43;3.38;;;2.22;;
60352;SDS011;46196;52.970;6.954;2022-09-21T19:21:48;3.83;;;2.20;;
60352;SDS011;46196;52.970;6.954;2022-09-21T19:27:33;4.28;;;2.10;;
60352;SDS011;46196;52.970;6.954;2022-09-21T19:32:43;6.13;;;2.72;;
60352;SDS011;46196;52.970;6.954;2022-09-21T19:35:34;3.53;;;2.33;;
60352;SDS011;46196;52.970;6.954;2022-09-21T19:38:00;4.38;;;2.60;;
60352;SDS011;46196;52.970;6.954;2022-09-21T19:40:29;4.75;;;2.80;;